createdAt,value
2023-04-29T00:00:48.916Z,7.46
2023-04-29T00:01:52.833Z,7.45
2023-04-29T00:02:54.711Z,7.44
2023-04-29T00:03:56.505Z,7.44
2023-04-29T00:04:58.565Z,7.43
2023-04-29T00:06:01.364Z,7.43
2023-04-29T00:07:02.952Z,7.42
2023-04-29T00:08:04.936Z,7.42
2023-04-29T00:09:06.333Z,7.41
2023-04-29T00:10:08.229Z,7.41
2023-04-29T00:11:10.900Z,7.41
2023-04-29T00:12:12.443Z,7.40
2023-04-29T00:13:13.895Z,7.39
2023-04-29T00:14:15.859Z,7.39
2023-04-29T00:15:17.820Z,7.38
2023-04-29T00:16:19.974Z,7.37
2023-04-29T00:17:21.348Z,7.36
2023-04-29T00:18:23.053Z,7.35
2023-04-29T00:19:24.563Z,7.33
2023-04-29T00:20:26.088Z,7.31
2023-04-29T00:21:27.858Z,7.31
2023-04-29T00:22:29.358Z,7.31
2023-04-29T00:23:32.475Z,7.30
2023-04-29T00:24:34.250Z,7.30
2023-04-29T00:25:37.624Z,7.30
2023-04-29T00:26:40.736Z,7.30
2023-04-29T00:27:42.222Z,7.30
2023-04-29T00:28:44.425Z,7.30
2023-04-29T00:29:45.899Z,7.29
2023-04-29T00:30:47.469Z,7.28
2023-04-29T00:31:49.458Z,7.27
2023-04-29T00:32:50.971Z,7.27
2023-04-29T00:33:52.629Z,7.26
2023-04-29T00:34:54.119Z,7.24
2023-04-29T00:35:55.838Z,7.23
2023-04-29T00:36:57.365Z,7.22
2023-04-29T00:37:58.774Z,7.21
2023-04-29T00:39:00.282Z,7.21
2023-04-29T00:40:01.903Z,7.20
2023-04-29T00:41:04.198Z,7.18
2023-04-29T00:42:06.114Z,7.17
2023-04-29T00:43:07.539Z,7.17
2023-04-29T00:44:09.583Z,7.17
2023-04-29T00:45:11.303Z,7.15
2023-04-29T00:46:13.090Z,7.14
2023-04-29T00:47:14.525Z,7.13
2023-04-29T00:48:16.497Z,7.12
2023-04-29T00:49:18.909Z,7.11
2023-04-29T00:50:21.295Z,7.10
2023-04-29T00:51:23.784Z,7.09
2023-04-29T00:52:26.946Z,7.08
2023-04-29T00:53:29.073Z,7.07
2023-04-29T00:54:30.582Z,7.06
2023-04-29T00:55:33.548Z,7.06
2023-04-29T00:56:36.984Z,7.06
2023-04-29T00:57:38.744Z,7.06
2023-04-29T00:58:45.067Z,7.05
2023-04-29T00:59:46.704Z,7.05
2023-04-29T01:00:48.909Z,7.05
2023-04-29T01:01:50.689Z,7.05
2023-04-29T01:02:54.176Z,7.05
2023-04-29T01:03:56.891Z,7.05
2023-04-29T01:04:58.584Z,7.04
2023-04-29T01:06:19.474Z,7.04
2023-04-29T01:07:21.016Z,7.03
2023-04-29T01:08:51.963Z,7.00
2023-04-29T01:10:10.063Z,6.98
2023-04-29T01:11:13.007Z,6.97
2023-04-29T01:12:36.464Z,6.95
2023-04-29T01:13:57.885Z,6.93
2023-04-29T01:15:16.853Z,6.91
2023-04-29T01:16:25.054Z,6.90
2023-04-29T01:17:31.073Z,6.89
2023-04-29T01:18:43.493Z,6.90
2023-04-29T01:19:52.454Z,6.89
2023-04-29T01:20:57.715Z,6.89
2023-04-29T01:21:59.445Z,6.88
2023-04-29T01:23:01.130Z,6.88
2023-04-29T01:24:03.594Z,6.88
2023-04-29T01:25:07.952Z,6.88
2023-04-29T01:26:25.737Z,6.87
2023-04-29T01:28:15.938Z,6.87
2023-04-29T01:29:39.027Z,6.84
2023-04-29T01:31:43.244Z,6.81
2023-04-29T01:32:59.661Z,6.79
2023-04-29T01:34:11.870Z,6.77
2023-04-29T01:35:33.787Z,6.77
2023-04-29T01:37:03.788Z,6.76
2023-04-29T01:38:26.046Z,6.77
2023-04-29T01:39:41.110Z,6.76
2023-04-29T01:40:58.973Z,6.75
2023-04-29T01:42:22.022Z,6.75
2023-04-29T01:43:26.401Z,6.75
2023-04-29T01:44:31.268Z,6.73
2023-04-29T01:45:34.272Z,6.72
2023-04-29T01:46:36.562Z,6.71
2023-04-29T01:47:38.611Z,6.71
2023-04-29T01:48:40.499Z,6.71
2023-04-29T01:49:42.271Z,6.70
2023-04-29T01:50:43.912Z,6.70
2023-04-29T01:51:46.885Z,6.68
2023-04-29T01:52:48.493Z,6.67
2023-04-29T01:53:50.015Z,6.66
2023-04-29T01:54:53.168Z,6.65
2023-04-29T01:55:54.848Z,6.65
2023-04-29T01:57:02.768Z,6.63
2023-04-29T01:58:24.633Z,6.62
2023-04-29T01:59:35.781Z,6.60
2023-04-29T02:00:50.792Z,6.59
2023-04-29T02:01:52.571Z,6.57
2023-04-29T02:02:54.551Z,6.57
2023-04-29T02:04:16.399Z,6.58
2023-04-29T02:05:17.891Z,6.57
2023-04-29T02:06:27.375Z,6.59
2023-04-29T02:07:32.450Z,6.60
2023-04-29T02:08:33.974Z,6.61
2023-04-29T02:09:36.170Z,6.61
2023-04-29T02:10:57.248Z,6.63
2023-04-29T02:12:15.088Z,6.60
2023-04-29T02:13:16.730Z,6.60
2023-04-29T02:14:18.507Z,6.61
2023-04-29T02:15:20.564Z,6.64
2023-04-29T02:16:22.778Z,6.66
2023-04-29T02:17:28.929Z,6.67
2023-04-29T02:18:31.679Z,6.67
2023-04-29T02:19:33.614Z,6.66
2023-04-29T02:20:37.495Z,6.66
2023-04-29T02:21:39.914Z,6.65
2023-04-29T02:22:42.025Z,6.66
2023-04-29T02:23:44.269Z,6.66
2023-04-29T02:24:45.896Z,6.66
2023-04-29T02:25:48.609Z,6.67
2023-04-29T02:26:50.147Z,6.68
2023-04-29T02:27:51.612Z,6.69
2023-04-29T02:28:53.159Z,6.70
2023-04-29T02:29:55.805Z,6.71
2023-04-29T02:30:57.481Z,6.71
2023-04-29T02:31:58.939Z,6.71
2023-04-29T02:33:00.575Z,6.69
2023-04-29T02:34:02.115Z,6.69
2023-04-29T02:35:03.800Z,6.70
2023-04-29T02:36:05.371Z,6.69
2023-04-29T02:37:06.945Z,6.69
2023-04-29T02:38:08.372Z,6.68
2023-04-29T02:39:11.514Z,6.67
2023-04-29T02:40:12.967Z,6.66
2023-04-29T02:41:18.075Z,6.66
2023-04-29T02:42:19.647Z,6.65
2023-04-29T02:43:21.576Z,6.64
2023-04-29T02:44:23.050Z,6.62
2023-04-29T02:45:24.516Z,6.61
2023-04-29T02:46:25.900Z,6.61
2023-04-29T02:47:27.496Z,6.62
2023-04-29T02:48:29.561Z,6.61
2023-04-29T02:49:31.043Z,6.62
2023-04-29T02:50:32.607Z,6.62
2023-04-29T02:51:34.257Z,6.62
2023-04-29T02:52:36.161Z,6.62
2023-04-29T02:53:37.594Z,6.63
2023-04-29T02:54:39.355Z,6.63
2023-04-29T02:55:40.901Z,6.64
2023-04-29T02:56:44.012Z,6.63
2023-04-29T02:57:45.568Z,6.63
2023-04-29T02:58:47.159Z,6.64
2023-04-29T02:59:48.686Z,6.64
2023-04-29T03:00:50.284Z,6.62
2023-04-29T03:01:53.916Z,6.58
2023-04-29T03:02:55.899Z,6.56
2023-04-29T03:03:57.978Z,6.54
2023-04-29T03:04:59.631Z,6.54
2023-04-29T03:06:01.079Z,6.55
2023-04-29T03:07:03.882Z,6.56
2023-04-29T03:08:05.431Z,6.57
2023-04-29T03:09:07.056Z,6.59
2023-04-29T03:10:09.056Z,6.60
2023-04-29T03:11:11.105Z,6.61
2023-04-29T03:12:13.079Z,6.62
2023-04-29T03:13:14.733Z,6.62
2023-04-29T03:14:16.636Z,6.61
2023-04-29T03:15:19.556Z,6.60
2023-04-29T03:16:21.418Z,6.60
2023-04-29T03:17:22.841Z,6.59
2023-04-29T03:18:24.484Z,6.60
2023-04-29T03:19:25.921Z,6.61
2023-04-29T03:20:27.525Z,6.63
2023-04-29T03:21:29.241Z,6.64
2023-04-29T03:22:30.992Z,6.65
2023-04-29T03:23:32.441Z,6.66
2023-04-29T03:24:35.044Z,6.68
2023-04-29T03:25:36.570Z,6.70
2023-04-29T03:26:38.012Z,6.71
2023-04-29T03:27:39.524Z,6.72
2023-04-29T03:28:41.817Z,6.72
2023-04-29T03:29:43.219Z,6.73
2023-04-29T03:30:45.101Z,6.75
2023-04-29T03:31:46.980Z,6.77
2023-04-29T03:32:48.917Z,6.78
2023-04-29T03:33:52.752Z,6.79
2023-04-29T03:34:54.674Z,6.80
2023-04-29T03:36:10.563Z,6.80
2023-04-29T03:37:16.925Z,6.80
2023-04-29T03:38:21.006Z,6.77
2023-04-29T03:39:22.803Z,6.78
2023-04-29T03:40:24.469Z,6.78
2023-04-29T03:41:25.953Z,6.77
2023-04-29T03:42:27.728Z,6.77
2023-04-29T03:43:29.300Z,6.74
2023-04-29T03:44:31.134Z,6.73
2023-04-29T03:45:32.835Z,6.74
2023-04-29T03:46:34.616Z,6.72
2023-04-29T03:47:36.714Z,6.69
2023-04-29T03:48:38.236Z,6.67
2023-04-29T03:49:39.678Z,6.69
2023-04-29T03:50:41.565Z,6.70
2023-04-29T03:51:46.505Z,6.73
2023-04-29T03:52:50.006Z,6.73
2023-04-29T03:53:53.775Z,6.75
2023-04-29T03:54:55.497Z,6.76
2023-04-29T03:55:57.043Z,6.77
2023-04-29T03:56:58.589Z,6.77
2023-04-29T03:58:00.126Z,6.78
2023-04-29T03:59:01.766Z,6.78
2023-04-29T04:00:04.548Z,6.77
2023-04-29T04:01:15.495Z,6.75
2023-04-29T04:02:18.962Z,6.74
2023-04-29T04:03:22.076Z,6.74
2023-04-29T04:04:24.303Z,6.77
2023-04-29T04:05:26.209Z,6.78
2023-04-29T04:06:31.616Z,6.81
2023-04-29T04:07:33.425Z,6.85
2023-04-29T04:09:04.933Z,6.88
2023-04-29T04:10:08.707Z,6.90
2023-04-29T04:11:10.344Z,6.91
2023-04-29T04:12:17.118Z,6.92
2023-04-29T04:13:18.754Z,6.93
2023-04-29T04:14:20.155Z,6.93
2023-04-29T04:15:21.985Z,6.94
2023-04-29T04:16:23.517Z,6.93
2023-04-29T04:17:27.018Z,6.93
2023-04-29T04:18:28.484Z,6.93
2023-04-29T04:19:30.520Z,6.94
2023-04-29T04:20:32.037Z,6.95
2023-04-29T04:21:34.901Z,6.95
2023-04-29T04:22:40.403Z,6.97
2023-04-29T04:23:50.637Z,6.98
2023-04-29T04:24:55.206Z,6.97
2023-04-29T04:25:57.461Z,6.97
2023-04-29T04:27:28.482Z,7.00
2023-04-29T04:28:31.601Z,7.03
2023-04-29T04:29:36.417Z,7.08
2023-04-29T04:30:49.212Z,7.13
2023-04-29T04:31:50.730Z,7.15
2023-04-29T04:32:53.064Z,7.18
2023-04-29T04:33:55.416Z,7.22
2023-04-29T04:34:57.335Z,7.26
2023-04-29T04:35:58.757Z,7.29
2023-04-29T04:37:00.827Z,7.31
2023-04-29T04:38:02.383Z,7.35
2023-04-29T04:39:03.874Z,7.40
2023-04-29T04:40:07.055Z,7.46
2023-04-29T04:41:11.626Z,7.50
2023-04-29T04:42:14.019Z,7.54
2023-04-29T04:43:18.333Z,7.60
2023-04-29T04:44:20.212Z,7.65
2023-04-29T04:45:41.915Z,7.68
2023-04-29T04:46:43.658Z,7.69
2023-04-29T04:47:50.594Z,7.73
2023-04-29T04:48:56.361Z,7.77
2023-04-29T04:49:57.750Z,7.81
2023-04-29T04:50:59.359Z,7.85
2023-04-29T04:52:00.971Z,7.89
2023-04-29T04:53:02.967Z,7.90
2023-04-29T04:54:15.746Z,7.92
2023-04-29T04:55:17.298Z,7.94
2023-04-29T04:56:21.359Z,7.95
2023-04-29T04:57:22.907Z,8.00
2023-04-29T04:58:25.972Z,8.03
2023-04-29T04:59:28.040Z,8.08
2023-04-29T05:00:29.619Z,8.11
2023-04-29T05:01:31.150Z,8.15
2023-04-29T05:02:32.678Z,8.18
2023-04-29T05:03:34.504Z,8.20
2023-04-29T05:04:36.562Z,8.22
2023-04-29T05:05:38.352Z,8.24
2023-04-29T05:06:40.022Z,8.26
2023-04-29T05:07:41.533Z,8.28
2023-04-29T05:08:43.336Z,8.31
2023-04-29T05:09:44.855Z,8.33
2023-04-29T05:10:46.495Z,8.35
2023-04-29T05:11:48.002Z,8.37
2023-04-29T05:12:51.331Z,8.39
2023-04-29T05:13:53.728Z,8.42
2023-04-29T05:14:55.681Z,8.42
2023-04-29T05:15:57.134Z,8.44
2023-04-29T05:17:01.469Z,8.46
2023-04-29T05:18:03.513Z,8.49
2023-04-29T05:19:05.445Z,8.52
2023-04-29T05:20:10.333Z,8.54
2023-04-29T05:21:12.513Z,8.56
2023-04-29T05:22:13.981Z,8.58
2023-04-29T05:23:16.039Z,8.58
2023-04-29T05:24:18.164Z,8.60
2023-04-29T05:25:20.353Z,8.62
2023-04-29T05:26:22.573Z,8.63
2023-04-29T05:27:25.014Z,8.65
2023-04-29T05:28:28.205Z,8.64
2023-04-29T05:29:30.465Z,8.65
2023-04-29T05:30:34.511Z,8.67
2023-04-29T05:31:36.824Z,8.68
2023-04-29T05:32:38.895Z,8.68
2023-04-29T05:33:41.473Z,8.68
2023-04-29T05:34:43.857Z,8.69
2023-04-29T05:35:45.762Z,8.72
2023-04-29T05:36:47.417Z,8.75
2023-04-29T05:37:49.024Z,8.76
2023-04-29T05:38:59.493Z,8.78
2023-04-29T05:40:01.028Z,8.78
2023-04-29T05:41:03.134Z,8.81
2023-04-29T05:42:17.709Z,8.87
2023-04-29T05:43:23.580Z,8.89
2023-04-29T05:44:26.656Z,8.93
2023-04-29T05:45:28.413Z,8.95
2023-04-29T05:46:29.815Z,8.98
2023-04-29T05:47:31.804Z,9.01
2023-04-29T05:48:33.281Z,9.03
2023-04-29T05:49:35.058Z,9.07
2023-04-29T05:50:38.335Z,9.12
2023-04-29T05:51:39.989Z,9.16
2023-04-29T05:52:41.528Z,9.21
2023-04-29T05:53:43.881Z,9.25
2023-04-29T05:54:45.396Z,9.29
2023-04-29T05:55:48.320Z,9.31
2023-04-29T05:56:51.498Z,9.34
2023-04-29T05:57:53.248Z,9.35
2023-04-29T05:58:54.691Z,9.38
2023-04-29T05:59:56.970Z,9.43
2023-04-29T06:00:59.954Z,9.48
2023-04-29T06:02:01.624Z,9.52
2023-04-29T06:03:03.667Z,9.53
2023-04-29T06:04:05.618Z,9.54
2023-04-29T06:05:20.539Z,9.57
2023-04-29T06:06:43.001Z,9.62
2023-04-29T06:07:51.761Z,9.66
2023-04-29T06:09:13.348Z,9.70
2023-04-29T06:10:19.417Z,9.73
2023-04-29T06:11:21.689Z,9.76
2023-04-29T06:12:23.118Z,9.81
2023-04-29T06:13:25.604Z,9.85
2023-04-29T06:14:26.998Z,9.89
2023-04-29T06:15:28.681Z,9.94
2023-04-29T06:16:31.516Z,9.97
2023-04-29T06:17:33.033Z,9.98
2023-04-29T06:18:34.558Z,10.00
2023-04-29T06:19:36.153Z,10.05
2023-04-29T06:20:37.760Z,10.10
2023-04-29T06:21:39.397Z,10.16
2023-04-29T06:22:41.007Z,10.18
2023-04-29T06:23:42.579Z,10.21
2023-04-29T06:24:50.395Z,10.27
2023-04-29T06:26:00.801Z,10.31
2023-04-29T06:27:03.612Z,10.36
2023-04-29T06:28:05.235Z,10.41
2023-04-29T06:29:07.006Z,10.42
2023-04-29T06:30:10.885Z,10.40
2023-04-29T06:31:13.407Z,10.35
2023-04-29T06:32:15.780Z,10.33
2023-04-29T06:33:17.889Z,10.37
2023-04-29T06:34:19.365Z,10.42
2023-04-29T06:35:40.503Z,10.50
2023-04-29T06:37:07.973Z,10.57
2023-04-29T06:38:27.888Z,10.62
2023-04-29T06:39:49.651Z,10.58
2023-04-29T06:41:16.519Z,10.58
2023-04-29T06:42:27.078Z,10.62
2023-04-29T06:44:00.618Z,10.62
2023-04-29T06:45:02.086Z,10.67
2023-04-29T06:46:28.568Z,10.75
2023-04-29T06:47:37.212Z,10.80
2023-04-29T06:48:42.332Z,10.86
2023-04-29T06:49:43.882Z,10.94
2023-04-29T06:50:52.928Z,11.00
2023-04-29T06:51:54.349Z,11.05
2023-04-29T06:52:55.879Z,11.09
2023-04-29T06:53:57.305Z,11.14
2023-04-29T06:54:59.218Z,11.20
2023-04-29T06:56:00.753Z,11.23
2023-04-29T06:57:02.404Z,11.23
2023-04-29T06:58:04.006Z,11.27
2023-04-29T06:59:05.612Z,11.32
2023-04-29T07:00:10.102Z,11.36
2023-04-29T07:01:11.912Z,11.40
2023-04-29T07:02:13.514Z,11.44
2023-04-29T07:03:16.611Z,11.46
2023-04-29T07:04:18.124Z,11.49
2023-04-29T07:05:22.636Z,11.53
2023-04-29T07:06:24.138Z,11.57
2023-04-29T07:07:27.450Z,11.60
2023-04-29T07:08:29.551Z,11.65
2023-04-29T07:09:31.010Z,11.67
2023-04-29T07:10:32.513Z,11.71
2023-04-29T07:11:34.394Z,11.75
2023-04-29T07:12:36.589Z,11.77
2023-04-29T07:13:38.081Z,11.79
2023-04-29T07:14:41.191Z,11.79
2023-04-29T07:15:42.910Z,11.78
2023-04-29T07:16:44.573Z,11.77
2023-04-29T07:17:46.038Z,11.75
2023-04-29T07:18:48.758Z,11.76
2023-04-29T07:19:51.043Z,11.82
2023-04-29T07:20:52.720Z,11.84
2023-04-29T07:21:54.309Z,11.87
2023-04-29T07:22:55.872Z,11.92
2023-04-29T07:24:00.030Z,11.95
2023-04-29T07:25:01.571Z,11.97
2023-04-29T07:26:13.445Z,12.01
2023-04-29T07:27:17.450Z,12.01
2023-04-29T07:28:18.987Z,12.02
2023-04-29T07:29:20.433Z,12.06
2023-04-29T07:30:22.711Z,12.08
2023-04-29T07:31:24.247Z,12.12
2023-04-29T07:32:26.400Z,12.15
2023-04-29T07:33:27.994Z,12.17
2023-04-29T07:34:29.563Z,12.21
2023-04-29T07:35:31.005Z,12.25
2023-04-29T07:36:32.718Z,12.30
2023-04-29T07:37:34.337Z,12.36
2023-04-29T07:38:36.420Z,12.40
2023-04-29T07:39:37.890Z,12.45
2023-04-29T07:40:41.320Z,12.50
2023-04-29T07:41:43.181Z,12.54
2023-04-29T07:42:44.701Z,12.54
2023-04-29T07:43:46.713Z,12.52
2023-04-29T07:44:48.635Z,12.56
2023-04-29T07:45:50.513Z,12.63
2023-04-29T07:46:51.954Z,12.69
2023-04-29T07:47:53.448Z,12.75
2023-04-29T07:48:55.356Z,12.79
2023-04-29T07:49:58.040Z,12.82
2023-04-29T07:50:59.991Z,12.84
2023-04-29T07:52:01.840Z,12.87
2023-04-29T07:53:03.508Z,12.88
2023-04-29T07:54:05.126Z,12.89
2023-04-29T07:55:06.884Z,12.90
2023-04-29T07:56:08.974Z,12.92
2023-04-29T07:57:10.385Z,12.95
2023-04-29T07:58:11.861Z,12.97
2023-04-29T07:59:14.025Z,12.99
2023-04-29T08:00:16.360Z,12.97
2023-04-29T08:01:17.972Z,13.00
2023-04-29T08:02:20.057Z,13.03
2023-04-29T08:03:22.379Z,13.03
2023-04-29T08:04:24.201Z,13.04
2023-04-29T08:05:46.028Z,13.04
2023-04-29T08:06:51.345Z,13.04
2023-04-29T08:07:52.778Z,13.04
2023-04-29T08:08:55.862Z,13.05
2023-04-29T08:09:57.312Z,13.07
2023-04-29T08:10:58.916Z,13.08
2023-04-29T08:12:01.449Z,13.11
2023-04-29T08:13:03.057Z,13.15
2023-04-29T08:14:04.479Z,13.17
2023-04-29T08:15:07.803Z,13.22
2023-04-29T08:16:11.968Z,13.25
2023-04-29T08:17:13.982Z,13.30
2023-04-29T08:18:15.938Z,13.35
2023-04-29T08:19:17.353Z,13.39
2023-04-29T08:20:19.129Z,13.45
2023-04-29T08:21:20.615Z,13.48
2023-04-29T08:22:22.071Z,13.52
2023-04-29T08:23:23.531Z,13.58
2023-04-29T08:24:25.175Z,13.64
2023-04-29T08:25:26.718Z,13.66
2023-04-29T08:26:28.177Z,13.67
2023-04-29T08:27:29.815Z,13.68
2023-04-29T08:28:31.592Z,13.72
2023-04-29T08:29:33.669Z,13.77
2023-04-29T08:30:38.409Z,13.81
2023-04-29T08:31:40.345Z,13.84
2023-04-29T08:32:41.997Z,13.85
2023-04-29T08:33:43.437Z,13.87
2023-04-29T08:34:44.863Z,13.88
2023-04-29T08:35:46.424Z,13.90
2023-04-29T08:36:48.415Z,13.92
2023-04-29T08:37:49.830Z,13.95
2023-04-29T08:38:52.496Z,13.99
2023-04-29T08:39:53.930Z,14.05
2023-04-29T08:40:55.784Z,14.10
2023-04-29T08:41:58.677Z,14.15
2023-04-29T08:43:00.642Z,14.22
2023-04-29T08:44:02.048Z,14.30
2023-04-29T08:45:04.230Z,14.39
2023-04-29T08:46:07.107Z,14.48
2023-04-29T08:47:09.242Z,14.52
2023-04-29T08:48:11.387Z,14.55
2023-04-29T08:49:13.604Z,14.61
2023-04-29T08:50:15.287Z,14.65
2023-04-29T08:51:16.871Z,14.69
2023-04-29T08:52:18.319Z,14.74
2023-04-29T08:53:20.008Z,14.80
2023-04-29T08:54:21.439Z,14.86
2023-04-29T08:55:24.021Z,14.95
2023-04-29T08:56:27.950Z,15.02
2023-04-29T08:57:30.475Z,15.10
2023-04-29T08:58:33.955Z,15.18
2023-04-29T08:59:36.763Z,15.24
2023-04-29T09:00:39.969Z,15.24
2023-04-29T09:01:43.324Z,15.24
2023-04-29T09:02:50.249Z,15.21
2023-04-29T09:04:09.043Z,15.21
2023-04-29T09:05:10.811Z,15.21
2023-04-29T09:06:13.633Z,15.24
2023-04-29T09:07:16.653Z,15.27
2023-04-29T09:08:18.104Z,15.32
2023-04-29T09:09:21.067Z,15.36
2023-04-29T09:10:23.159Z,15.40
2023-04-29T09:11:26.510Z,15.45
2023-04-29T09:12:29.772Z,15.51
2023-04-29T09:13:32.036Z,15.57
2023-04-29T09:14:33.770Z,15.63
2023-04-29T09:15:42.139Z,15.71
2023-04-29T09:16:46.814Z,15.76
2023-04-29T09:17:48.608Z,15.78
2023-04-29T09:18:51.405Z,15.79
2023-04-29T09:19:52.816Z,15.80
2023-04-29T09:20:54.200Z,15.87
2023-04-29T09:21:56.347Z,15.98
2023-04-29T09:23:03.673Z,16.08
2023-04-29T09:24:05.239Z,16.16
2023-04-29T09:25:13.458Z,16.22
2023-04-29T09:26:15.608Z,16.30
2023-04-29T09:27:27.602Z,16.38
2023-04-29T09:28:29.342Z,16.46
2023-04-29T09:29:32.311Z,16.54
2023-04-29T09:30:46.111Z,16.60
2023-04-29T09:31:48.781Z,16.65
2023-04-29T09:33:06.006Z,16.70
2023-04-29T09:34:08.269Z,16.72
2023-04-29T09:35:24.226Z,16.74
2023-04-29T09:36:38.706Z,16.76
2023-04-29T09:37:41.184Z,16.80
2023-04-29T09:39:13.033Z,16.86
2023-04-29T09:40:31.025Z,16.89
2023-04-29T09:41:32.642Z,16.87
2023-04-29T09:42:42.916Z,16.86
2023-04-29T09:43:44.236Z,16.88
2023-04-29T09:44:45.848Z,16.92
2023-04-29T09:45:48.175Z,16.96
2023-04-29T09:47:02.290Z,17.02
2023-04-29T09:48:05.627Z,17.10
2023-04-29T09:49:25.387Z,17.20
2023-04-29T09:50:28.060Z,17.32
2023-04-29T09:51:31.715Z,17.34
2023-04-29T09:52:41.112Z,17.39
2023-04-29T09:53:42.594Z,17.50
2023-04-29T09:54:44.888Z,17.61
2023-04-29T09:55:52.631Z,17.68
2023-04-29T09:56:55.541Z,17.70
2023-04-29T09:57:57.876Z,17.65
2023-04-29T09:59:08.720Z,17.60
2023-04-29T10:00:11.516Z,17.62
2023-04-29T10:01:18.963Z,17.65
2023-04-29T10:02:22.226Z,17.64
2023-04-29T10:03:24.222Z,17.65
2023-04-29T10:04:27.408Z,17.69
2023-04-29T10:05:30.046Z,17.74
2023-04-29T10:06:31.773Z,17.82
2023-04-29T10:07:33.512Z,17.89
2023-04-29T10:08:35.228Z,17.97
2023-04-29T10:09:39.260Z,18.01
2023-04-29T10:10:41.073Z,18.04
2023-04-29T10:11:50.121Z,18.07
2023-04-29T10:12:54.736Z,18.12
2023-04-29T10:13:57.911Z,18.16
2023-04-29T10:15:06.627Z,18.20
2023-04-29T10:27:07.166Z,17.95
2023-04-29T10:28:13.898Z,18.02
2023-04-29T10:29:16.911Z,18.11
2023-04-29T10:30:21.054Z,18.21
2023-04-29T10:31:25.949Z,18.28
2023-04-29T10:32:30.525Z,18.34
2023-04-29T10:33:36.829Z,18.41
2023-04-29T10:34:39.844Z,18.44
2023-04-29T10:35:44.392Z,18.44
2023-04-29T10:36:46.581Z,18.45
2023-04-29T10:37:49.110Z,18.39
2023-04-29T10:38:55.262Z,18.24
2023-04-29T10:40:27.222Z,18.09
2023-04-29T10:41:45.587Z,17.91
2023-04-29T10:42:49.962Z,17.84
2023-04-29T10:43:55.376Z,17.81
2023-04-29T10:45:17.712Z,17.77
2023-04-29T10:46:20.623Z,17.74
2023-04-29T10:47:22.236Z,17.71
2023-04-29T10:48:25.037Z,17.64
2023-04-29T10:49:33.661Z,17.57
2023-04-29T10:50:48.138Z,17.54
2023-04-29T10:51:49.684Z,17.51
2023-04-29T10:52:51.691Z,17.46
2023-04-29T10:54:06.452Z,17.42
2023-04-29T10:55:08.061Z,17.41
2023-04-29T10:56:12.880Z,17.38
2023-04-29T10:57:30.230Z,17.36
2023-04-29T10:58:37.945Z,17.30
2023-04-29T10:59:39.615Z,17.17
2023-04-29T11:00:41.094Z,17.08
2023-04-29T11:01:49.710Z,16.99
2023-04-29T11:02:53.309Z,16.87
2023-04-29T11:03:59.486Z,16.75
2023-04-29T11:05:11.638Z,16.64
2023-04-29T11:06:13.555Z,16.53
2023-04-29T11:07:33.119Z,16.44
2023-04-29T11:08:39.153Z,16.35
2023-04-29T11:09:40.686Z,16.27
2023-04-29T11:10:43.373Z,16.22
2023-04-29T11:11:55.734Z,16.18
2023-04-29T11:13:20.317Z,16.13
2023-04-29T11:14:42.954Z,16.05
2023-04-29T11:15:44.439Z,15.98
2023-04-29T11:16:48.663Z,15.94
2023-04-29T11:17:50.314Z,15.93
2023-04-29T11:19:08.869Z,15.89
2023-04-29T11:20:13.382Z,15.84
2023-04-29T11:21:15.090Z,15.79
2023-04-29T11:22:23.374Z,15.74
2023-04-29T11:23:26.161Z,15.70
2023-04-29T11:24:29.054Z,15.67
2023-04-29T11:25:30.544Z,15.65
2023-04-29T11:26:34.687Z,15.63
2023-04-29T11:27:39.263Z,15.61
2023-04-29T11:28:41.956Z,15.60
2023-04-29T11:29:45.074Z,15.59
2023-04-29T11:30:46.836Z,15.59
2023-04-29T11:31:48.361Z,15.59
2023-04-29T11:32:51.288Z,15.60
2023-04-29T11:33:52.859Z,15.61
2023-04-29T11:34:54.739Z,15.64
2023-04-29T11:35:57.003Z,15.67
2023-04-29T11:36:58.758Z,15.69
2023-04-29T11:38:00.199Z,15.70
2023-04-29T11:39:03.338Z,15.70
2023-04-29T11:40:06.346Z,15.70
2023-04-29T11:41:08.280Z,15.72
2023-04-29T11:42:10.110Z,15.73
2023-04-29T11:43:17.466Z,15.74
2023-04-29T11:44:24.528Z,15.76
2023-04-29T11:45:27.398Z,15.74
2023-04-29T11:46:32.078Z,15.72
2023-04-29T11:47:33.782Z,15.72
2023-04-29T11:48:35.287Z,15.74
2023-04-29T11:49:39.591Z,15.75
2023-04-29T11:50:41.706Z,15.73
2023-04-29T11:51:43.117Z,15.73
2023-04-29T11:52:46.307Z,15.72
2023-04-29T11:53:47.728Z,15.73
2023-04-29T11:54:49.197Z,15.74
2023-04-29T11:55:54.005Z,15.75
2023-04-29T11:56:57.292Z,15.77
2023-04-29T11:57:59.333Z,15.79
2023-04-29T11:59:01.377Z,15.79
2023-04-29T12:00:05.139Z,15.78
2023-04-29T12:01:09.020Z,15.78
2023-04-29T12:02:12.794Z,15.80
2023-04-29T12:03:16.229Z,15.84
2023-04-29T12:04:19.090Z,15.89
2023-04-29T12:05:20.936Z,15.96
2023-04-29T12:06:26.952Z,16.02
2023-04-29T12:07:28.446Z,16.11
2023-04-29T12:08:31.254Z,16.19
2023-04-29T12:09:42.502Z,16.27
2023-04-29T12:10:43.989Z,16.34
2023-04-29T12:11:49.693Z,16.40
2023-04-29T12:12:51.601Z,16.45
2023-04-29T12:13:54.397Z,16.50
2023-04-29T12:14:56.212Z,16.54
2023-04-29T12:15:58.682Z,16.56
2023-04-29T12:17:01.101Z,16.55
2023-04-29T12:18:02.694Z,16.54
2023-04-29T12:19:04.734Z,16.52
2023-04-29T12:20:10.851Z,16.50
2023-04-29T12:21:12.540Z,16.49
2023-04-29T12:22:14.048Z,16.49
2023-04-29T12:23:18.255Z,16.49
2023-04-29T12:24:24.129Z,16.49
2023-04-29T12:25:27.489Z,16.50
2023-04-29T12:26:30.796Z,16.50
2023-04-29T12:27:33.754Z,16.51
2023-04-29T12:28:35.641Z,16.52
2023-04-29T12:29:38.199Z,16.55
2023-04-29T12:30:40.037Z,16.56
2023-04-29T12:31:42.793Z,16.56
2023-04-29T12:32:44.589Z,16.54
2023-04-29T12:33:46.214Z,16.53
2023-04-29T12:34:50.333Z,16.51
2023-04-29T12:35:54.162Z,16.50
2023-04-29T12:36:57.677Z,16.49
2023-04-29T12:37:59.370Z,16.47
2023-04-29T12:39:00.952Z,16.45
2023-04-29T12:40:03.260Z,16.43
2023-04-29T12:41:07.133Z,16.40
2023-04-29T12:42:16.225Z,16.37
2023-04-29T12:43:18.231Z,16.31
2023-04-29T12:44:19.930Z,16.25
2023-04-29T12:45:30.210Z,16.19
2023-04-29T12:46:36.518Z,16.11
2023-04-29T12:47:38.654Z,16.01
2023-04-29T12:48:41.553Z,15.94
2023-04-29T12:49:47.411Z,15.87
2023-04-29T12:50:51.053Z,15.84
2023-04-29T12:51:53.018Z,15.81
2023-04-29T12:52:54.600Z,15.77
2023-04-29T12:53:56.151Z,15.73
2023-04-29T12:54:57.838Z,15.68
2023-04-29T12:55:59.969Z,15.63
2023-04-29T12:57:02.189Z,15.58
2023-04-29T12:58:04.576Z,15.54
2023-04-29T12:59:07.462Z,15.50
2023-04-29T13:00:09.716Z,15.47
2023-04-29T13:01:12.015Z,15.43
2023-04-29T13:02:13.483Z,15.40
2023-04-29T13:03:15.318Z,15.38
2023-04-29T13:04:16.890Z,15.36
2023-04-29T13:05:18.452Z,15.35
2023-04-29T13:06:20.096Z,15.33
2023-04-29T13:07:21.554Z,15.30
2023-04-29T13:08:23.062Z,15.27
2023-04-29T13:09:24.613Z,15.26
2023-04-29T13:10:27.703Z,15.25
2023-04-29T13:11:34.098Z,15.24
2023-04-29T13:12:36.484Z,15.23
2023-04-29T13:13:38.059Z,15.22
2023-04-29T13:14:39.494Z,15.23
2023-04-29T13:15:40.951Z,15.23
2023-04-29T13:16:42.526Z,15.24
2023-04-29T13:17:45.129Z,15.23
2023-04-29T13:18:58.933Z,15.24
2023-04-29T13:20:07.166Z,15.23
2023-04-29T13:21:08.566Z,15.22
2023-04-29T13:22:10.410Z,15.23
2023-04-29T13:23:12.405Z,15.24
2023-04-29T13:24:13.952Z,15.26
2023-04-29T13:25:15.790Z,15.27
2023-04-29T13:26:17.828Z,15.28
2023-04-29T13:27:19.473Z,15.28
2023-04-29T13:28:22.004Z,15.29
2023-04-29T13:29:24.066Z,15.29
2023-04-29T13:30:25.598Z,15.28
2023-04-29T13:31:27.430Z,15.29
2023-04-29T13:32:41.959Z,15.29
2023-04-29T13:33:48.271Z,15.27
2023-04-29T13:34:50.651Z,15.25
2023-04-29T13:35:52.088Z,15.22
2023-04-29T13:36:53.505Z,15.21
2023-04-29T13:37:55.838Z,15.20
2023-04-29T13:38:57.411Z,15.19
2023-04-29T13:39:59.203Z,15.18
2023-04-29T13:41:00.773Z,15.17
2023-04-29T13:42:03.259Z,15.16
2023-04-29T13:43:07.202Z,15.17
2023-04-29T13:44:23.727Z,15.16
2023-04-29T13:45:39.023Z,15.17
2023-04-29T13:46:41.566Z,15.15
2023-04-29T13:48:03.122Z,15.15
2023-04-29T13:49:29.119Z,15.15
2023-04-29T13:51:05.007Z,15.16
2023-04-29T13:52:32.354Z,15.16
2023-04-29T13:53:41.044Z,15.16
2023-04-29T13:54:53.591Z,15.13
2023-04-29T13:57:55.188Z,15.11
2023-04-29T14:01:10.360Z,15.06
2023-04-29T14:03:06.887Z,15.05
2023-04-29T14:04:08.649Z,15.04
2023-04-29T14:05:10.553Z,15.04
2023-04-29T14:06:12.431Z,15.05
2023-04-29T14:07:14.060Z,15.05
2023-04-29T14:08:15.518Z,15.06
2023-04-29T14:09:18.017Z,15.07
2023-04-29T14:10:19.947Z,15.07
2023-04-29T14:11:21.886Z,15.07
2023-04-29T14:12:23.326Z,15.06
2023-04-29T14:13:24.782Z,15.07
2023-04-29T14:14:26.278Z,15.09
2023-04-29T14:15:28.255Z,15.11
2023-04-29T14:16:30.236Z,15.13
2023-04-29T14:17:32.017Z,15.16
2023-04-29T14:18:33.500Z,15.17